createdAt,value
2022-11-29T00:00:58.445Z,116.88
2022-11-29T00:03:01.122Z,67.78
2022-11-29T00:05:03.724Z,131.43
2022-11-29T00:07:06.052Z,115.20
2022-11-29T00:09:11.716Z,140.43
2022-11-29T00:11:37.589Z,96.68
2022-11-29T00:13:40.261Z,90.75
2022-11-29T00:15:42.549Z,99.15
2022-11-29T00:17:47.522Z,139.45
2022-11-29T00:19:50.697Z,129.52
2022-11-29T00:21:53.060Z,127.53
2022-11-29T00:23:55.786Z,147.77
2022-11-29T00:26:03.841Z,68.38
2022-11-29T00:28:06.177Z,131.75
2022-11-29T00:30:09.856Z,109.55
2022-11-29T00:32:12.076Z,115.60
2022-11-29T00:34:16.992Z,76.85
2022-11-29T00:36:20.030Z,69.95
2022-11-29T00:38:22.397Z,112.70
2022-11-29T00:40:24.734Z,69.05
2022-11-29T00:42:27.381Z,81.85
2022-11-29T00:44:29.806Z,62.80
2022-11-29T00:46:32.211Z,92.18
2022-11-29T00:48:34.830Z,69.53
2022-11-29T00:50:40.015Z,59.30
2022-11-29T00:52:42.362Z,95.72
2022-11-29T00:54:45.452Z,94.25
2022-11-29T00:56:48.162Z,86.38
2022-11-29T00:58:50.623Z,61.20
2022-11-29T01:00:53.694Z,94.55
2022-11-29T01:02:56.114Z,80.38
2022-11-29T01:04:58.486Z,83.38
2022-11-29T01:07:03.452Z,75.38
2022-11-29T01:09:06.006Z,75.63
2022-11-29T01:11:12.213Z,42.78
2022-11-29T01:13:14.611Z,102.35
2022-11-29T01:15:17.032Z,114.38
2022-11-29T01:17:19.402Z,71.55
2022-11-29T01:19:21.685Z,104.90
2022-11-29T01:21:24.970Z,68.88
2022-11-29T01:23:30.277Z,102.13
2022-11-29T01:25:32.655Z,89.47
2022-11-29T01:27:35.333Z,128.90
2022-11-29T01:29:38.466Z,92.95
2022-11-29T01:31:42.741Z,104.80
2022-11-29T01:33:45.668Z,97.68
2022-11-29T01:35:49.382Z,91.70
2022-11-29T01:37:51.735Z,113.82
2022-11-29T01:39:56.803Z,98.03
2022-11-29T01:42:00.804Z,95.65
2022-11-29T01:44:05.261Z,132.88
2022-11-29T01:46:07.965Z,92.10
2022-11-29T01:48:12.109Z,57.78
2022-11-29T01:50:14.810Z,107.85
2022-11-29T01:52:19.677Z,48.63
2022-11-29T01:54:22.472Z,86.22
2022-11-29T01:56:30.275Z,76.93
2022-11-29T01:58:35.923Z,64.18
2022-11-29T02:00:43.283Z,89.78
2022-11-29T02:02:51.236Z,100.45
2022-11-29T02:04:53.668Z,54.53
2022-11-29T02:06:55.981Z,51.65
2022-11-29T02:08:59.406Z,78.55
2022-11-29T02:11:40.308Z,48.87
2022-11-29T02:13:54.682Z,56.30
2022-11-29T02:16:03.366Z,57.45
2022-11-29T02:18:10.542Z,58.47
2022-11-29T02:20:43.313Z,63.63
2022-11-29T02:22:51.953Z,66.05
2022-11-29T02:25:07.804Z,83.70
2022-11-29T02:27:41.150Z,66.68
2022-11-29T02:30:13.236Z,76.43
2022-11-29T02:32:51.304Z,43.38
2022-11-29T02:35:04.232Z,62.13
2022-11-29T02:37:21.647Z,72.30
2022-11-29T02:39:47.612Z,50.60
2022-11-29T02:42:04.803Z,49.70
2022-11-29T02:44:39.600Z,50.58
2022-11-29T02:46:52.240Z,58.13
2022-11-29T02:49:05.560Z,47.22
2022-11-29T02:51:15.825Z,46.35
2022-11-29T02:53:24.855Z,39.88
2022-11-29T02:55:34.810Z,35.55
2022-11-29T02:57:45.855Z,42.03
2022-11-29T02:59:55.321Z,40.25
2022-11-29T03:02:06.771Z,40.33
2022-11-29T03:04:23.491Z,52.05
2022-11-29T03:06:36.156Z,58.72
2022-11-29T03:08:47.096Z,44.90
2022-11-29T03:10:56.978Z,60.42
2022-11-29T03:13:00.053Z,44.85
2022-11-29T03:15:16.350Z,62.58
2022-11-29T03:17:30.746Z,29.13
2022-11-29T03:19:53.797Z,42.72
2022-11-29T03:22:08.219Z,25.33
2022-11-29T03:24:18.998Z,36.45
2022-11-29T03:26:26.732Z,40.70
2022-11-29T03:28:32.006Z,29.55
2022-11-29T03:30:38.490Z,55.47
2022-11-29T03:32:45.666Z,48.67
2022-11-29T03:34:59.614Z,29.67
2022-11-29T03:37:09.338Z,34.63
2022-11-29T03:39:18.029Z,38.75
2022-11-29T03:41:25.398Z,49.10
2022-11-29T03:43:33.932Z,40.63
2022-11-29T03:45:42.652Z,49.75
2022-11-29T03:47:52.430Z,58.70
2022-11-29T03:50:03.700Z,63.70
2022-11-29T03:52:12.440Z,40.13
2022-11-29T03:54:21.452Z,42.55
2022-11-29T03:56:28.936Z,37.42
2022-11-29T03:58:41.661Z,29.60
2022-11-29T04:01:00.337Z,34.08
2022-11-29T04:03:32.275Z,44.83
2022-11-29T04:05:55.399Z,46.17
2022-11-29T04:08:12.102Z,68.38
2022-11-29T04:10:32.122Z,39.55
2022-11-29T04:13:16.157Z,51.90
2022-11-29T04:15:48.313Z,29.33
2022-11-29T04:18:13.926Z,43.35
2022-11-29T04:20:43.001Z,47.65
2022-11-29T04:23:18.119Z,45.40
2022-11-29T04:25:44.004Z,51.90
2022-11-29T04:28:12.005Z,33.38
2022-11-29T04:30:19.020Z,43.15
2022-11-29T04:32:48.403Z,46.08
2022-11-29T04:35:05.606Z,50.35
2022-11-29T04:37:45.230Z,69.38
2022-11-29T04:40:24.321Z,48.53
2022-11-29T04:42:46.957Z,55.17
2022-11-29T04:45:06.505Z,50.35
2022-11-29T04:47:49.754Z,63.78
2022-11-29T04:50:06.074Z,35.10
2022-11-29T04:52:36.953Z,35.67
2022-11-29T04:54:47.600Z,55.00
2022-11-29T04:57:06.315Z,34.08
2022-11-29T04:59:15.818Z,35.53
2022-11-29T05:01:26.800Z,31.63
2022-11-29T05:03:37.471Z,49.78
2022-11-29T05:05:47.781Z,25.95
2022-11-29T05:07:58.347Z,40.75
2022-11-29T05:10:15.765Z,26.23
2022-11-29T05:12:28.635Z,33.42
2022-11-29T05:14:42.117Z,28.65
2022-11-29T05:16:56.590Z,54.58
2022-11-29T05:19:28.709Z,26.17
2022-11-29T05:21:42.106Z,25.15
2022-11-29T05:23:55.433Z,29.17
2022-11-29T05:26:03.404Z,35.30
2022-11-29T05:28:13.027Z,52.83
2022-11-29T05:30:18.345Z,23.13
2022-11-29T05:32:33.895Z,24.50
2022-11-29T05:34:53.150Z,24.48
2022-11-29T05:37:02.895Z,17.92
2022-11-29T05:39:27.051Z,28.73
2022-11-29T05:41:48.185Z,22.35
2022-11-29T05:44:02.774Z,33.97
2022-11-29T05:46:12.934Z,24.73
2022-11-29T05:48:24.436Z,19.85
2022-11-29T05:50:32.570Z,22.77
2022-11-29T05:52:50.488Z,26.30
2022-11-29T05:55:19.456Z,31.25
2022-11-29T05:57:34.005Z,30.30
2022-11-29T05:59:41.253Z,27.13
2022-11-29T06:01:53.026Z,43.28
2022-11-29T06:04:02.287Z,31.48
2022-11-29T06:06:10.555Z,25.77
2022-11-29T06:08:19.718Z,22.65
2022-11-29T06:10:26.202Z,30.42
2022-11-29T06:12:35.748Z,24.58
2022-11-29T06:14:57.482Z,26.10
2022-11-29T06:17:37.301Z,19.20
2022-11-29T06:20:09.136Z,29.08
2022-11-29T06:22:37.895Z,26.08
2022-11-29T06:24:56.588Z,23.15
2022-11-29T06:27:29.618Z,26.90
2022-11-29T06:29:40.259Z,26.08
2022-11-29T06:31:51.200Z,20.67
2022-11-29T06:34:02.594Z,26.50
2022-11-29T06:36:14.458Z,24.40
2022-11-29T06:38:22.731Z,17.63
2022-11-29T06:40:25.976Z,19.05
2022-11-29T06:42:28.247Z,20.77
2022-11-29T06:44:31.264Z,19.52
2022-11-29T06:46:47.093Z,20.67
2022-11-29T06:48:56.575Z,22.85
2022-11-29T06:51:09.778Z,18.27
2022-11-29T06:53:21.757Z,22.42
2022-11-29T06:55:31.096Z,21.23
2022-11-29T06:57:43.647Z,25.33
2022-11-29T07:00:02.770Z,22.13
2022-11-29T07:02:28.703Z,21.15
2022-11-29T07:04:48.455Z,20.02
2022-11-29T07:06:51.699Z,19.52
2022-11-29T07:08:59.624Z,20.83
2022-11-29T07:11:02.565Z,19.95
2022-11-29T07:13:05.791Z,22.88
2022-11-29T07:15:14.457Z,21.10
2022-11-29T07:17:23.937Z,21.38
2022-11-29T07:19:35.127Z,21.00
2022-11-29T07:21:52.427Z,18.25
2022-11-29T07:24:07.069Z,16.83
2022-11-29T07:26:21.867Z,21.30
2022-11-29T07:28:39.385Z,16.80
2022-11-29T07:30:50.284Z,21.50
2022-11-29T07:33:04.116Z,29.08
2022-11-29T07:35:19.526Z,17.40
2022-11-29T07:37:32.709Z,16.95
2022-11-29T07:39:43.806Z,20.08
2022-11-29T07:41:53.291Z,21.20
2022-11-29T07:44:08.751Z,20.20
2022-11-29T07:46:11.100Z,19.25
2022-11-29T07:48:17.668Z,18.65
2022-11-29T07:50:20.603Z,26.27
2022-11-29T07:52:23.034Z,19.48
2022-11-29T07:54:26.187Z,18.60
2022-11-29T07:56:28.504Z,13.80
2022-11-29T07:58:30.836Z,15.68
2022-11-29T08:00:33.198Z,18.35
2022-11-29T08:02:35.649Z,16.92
2022-11-29T08:04:46.669Z,16.52
2022-11-29T08:06:49.289Z,18.20
2022-11-29T08:08:51.576Z,19.85
2022-11-29T08:10:54.093Z,23.48
2022-11-29T08:12:56.408Z,23.13
2022-11-29T08:14:58.746Z,19.42
2022-11-29T08:17:01.191Z,22.60
2022-11-29T08:19:03.892Z,19.33
2022-11-29T08:21:10.230Z,18.92
2022-11-29T08:23:13.475Z,15.07
2022-11-29T08:25:16.313Z,16.25
2022-11-29T08:27:18.885Z,21.17
2022-11-29T08:29:22.150Z,15.90
2022-11-29T08:31:24.520Z,14.90
2022-11-29T08:33:26.858Z,17.83
2022-11-29T08:35:29.575Z,18.98
2022-11-29T08:37:34.433Z,23.02
2022-11-29T08:39:36.833Z,14.70
2022-11-29T08:41:41.838Z,17.83
2022-11-29T08:43:44.727Z,19.15
2022-11-29T08:45:51.891Z,15.00
2022-11-29T08:47:54.275Z,22.63
2022-11-29T08:50:02.688Z,20.05
2022-11-29T08:52:23.932Z,17.73
2022-11-29T08:54:29.065Z,13.98
2022-11-29T08:57:16.661Z,17.48
2022-11-29T08:58:53.745Z,21.50
2022-11-29T09:00:56.327Z,13.63
2022-11-29T09:03:18.795Z,13.63
2022-11-29T09:05:21.330Z,17.38
2022-11-29T09:07:23.810Z,18.52
2022-11-29T09:09:28.789Z,17.27
2022-11-29T09:11:33.754Z,17.02
2022-11-29T09:13:36.376Z,14.57
2022-11-29T09:15:39.038Z,23.23
2022-11-29T09:17:41.352Z,17.38
2022-11-29T09:19:43.645Z,24.35
2022-11-29T09:21:46.037Z,18.38
2022-11-29T09:23:48.431Z,21.45
2022-11-29T09:25:54.337Z,16.95
2022-11-29T09:27:58.234Z,18.20
2022-11-29T09:30:01.325Z,17.73
2022-11-29T09:32:03.722Z,20.90
2022-11-29T09:34:06.094Z,12.68
2022-11-29T09:36:10.699Z,15.40
2022-11-29T09:38:13.783Z,12.43
2022-11-29T09:40:19.964Z,16.02
2022-11-29T09:42:36.957Z,16.77
2022-11-29T09:44:51.870Z,15.23
2022-11-29T09:47:02.916Z,16.77
2022-11-29T09:49:20.245Z,18.25
2022-11-29T09:51:29.990Z,20.92
2022-11-29T09:53:48.853Z,16.13
2022-11-29T09:56:09.745Z,17.02
2022-11-29T09:58:20.920Z,15.40
2022-11-29T10:00:23.424Z,16.60
2022-11-29T10:02:30.615Z,16.00
2022-11-29T10:04:40.418Z,13.95
2022-11-29T10:06:45.834Z,20.27
2022-11-29T10:08:52.302Z,15.23
2022-11-29T10:11:01.839Z,17.67
2022-11-29T10:13:15.986Z,17.10
2022-11-29T10:15:25.929Z,23.10
2022-11-29T10:17:34.515Z,23.88
2022-11-29T10:19:43.192Z,18.85
2022-11-29T10:21:54.217Z,29.48
2022-11-29T10:24:01.568Z,20.25
2022-11-29T10:26:08.087Z,17.27
2022-11-29T10:28:15.306Z,18.50
2022-11-29T10:30:22.649Z,13.73
2022-11-29T10:32:25.862Z,17.30
2022-11-29T10:34:31.858Z,18.98
2022-11-29T10:36:40.850Z,26.40
2022-11-29T10:38:44.874Z,16.70
2022-11-29T10:40:49.923Z,18.60
2022-11-29T10:42:53.868Z,30.15
2022-11-29T10:44:57.532Z,19.23
2022-11-29T10:47:10.542Z,24.52
2022-11-29T10:49:17.397Z,18.17
2022-11-29T10:51:20.297Z,18.33
2022-11-29T10:53:26.346Z,18.48
2022-11-29T10:55:34.784Z,12.02
2022-11-29T10:57:38.113Z,18.08
2022-11-29T10:59:40.621Z,17.93
2022-11-29T11:01:44.427Z,14.63
2022-11-29T11:03:54.248Z,23.42
2022-11-29T11:06:02.373Z,17.52
2022-11-29T11:08:05.766Z,16.23
2022-11-29T11:10:21.913Z,14.80
2022-11-29T11:12:27.531Z,15.05
2022-11-29T11:14:33.301Z,19.20
2022-11-29T11:16:37.787Z,18.40
2022-11-29T11:18:40.273Z,13.13
2022-11-29T11:20:53.643Z,13.77
2022-11-29T11:22:59.226Z,18.23
2022-11-29T11:25:04.535Z,17.23
2022-11-29T11:27:07.196Z,15.35
2022-11-29T11:29:18.798Z,16.92
2022-11-29T11:31:34.950Z,21.27
2022-11-29T11:33:38.798Z,16.52
2022-11-29T11:35:41.495Z,15.00
2022-11-29T11:37:56.842Z,16.00
2022-11-29T11:40:01.011Z,13.35
2022-11-29T11:42:24.020Z,19.25
2022-11-29T11:44:46.788Z,14.50
2022-11-29T11:46:51.272Z,13.73
2022-11-29T11:48:54.173Z,17.75
2022-11-29T11:50:59.323Z,13.90
2022-11-29T11:53:07.487Z,18.27
2022-11-29T11:55:26.981Z,11.40
2022-11-29T11:57:30.166Z,11.32
2022-11-29T11:59:32.580Z,10.82
2022-11-29T12:01:38.165Z,11.02
2022-11-29T12:03:48.781Z,12.05
2022-11-29T12:05:54.076Z,9.35
2022-11-29T12:08:09.821Z,11.95
2022-11-29T12:10:24.445Z,10.35
2022-11-29T12:12:29.875Z,14.18
2022-11-29T12:14:40.514Z,14.57
2022-11-29T12:16:45.320Z,12.07
2022-11-29T12:18:50.555Z,11.70
2022-11-29T12:20:58.481Z,10.30
2022-11-29T12:23:13.522Z,13.00
2022-11-29T12:25:24.673Z,12.75
2022-11-29T12:27:27.217Z,20.55
2022-11-29T12:29:33.874Z,12.10
2022-11-29T12:31:56.937Z,12.05
2022-11-29T12:34:12.798Z,13.02
2022-11-29T12:36:26.203Z,10.27
2022-11-29T12:38:52.693Z,10.27
2022-11-29T12:41:06.594Z,9.85
2022-11-29T12:43:24.600Z,9.15
2022-11-29T12:45:40.720Z,8.88
2022-11-29T12:47:52.284Z,9.77
2022-11-29T12:50:07.454Z,9.52
2022-11-29T12:52:18.417Z,9.32
2022-11-29T12:54:34.169Z,9.45
2022-11-29T12:56:49.875Z,14.77
2022-11-29T12:59:04.191Z,10.20
2022-11-29T13:01:15.620Z,11.93
2022-11-29T13:03:26.915Z,11.23
2022-11-29T13:05:46.163Z,10.60
2022-11-29T13:08:03.912Z,10.60
2022-11-29T13:10:28.491Z,10.68
2022-11-29T13:12:39.037Z,10.40
2022-11-29T13:14:49.931Z,13.32
2022-11-29T13:16:57.626Z,13.50
2022-11-29T13:19:05.387Z,12.07
2022-11-29T13:21:15.222Z,12.98
2022-11-29T13:23:39.082Z,13.60
2022-11-29T13:25:50.945Z,12.85
2022-11-29T13:28:00.238Z,13.48
2022-11-29T13:30:04.578Z,11.88
2022-11-29T13:32:27.192Z,9.98
2022-11-29T13:34:35.624Z,8.93
2022-11-29T13:36:46.041Z,9.10
2022-11-29T13:38:58.050Z,10.63
2022-11-29T13:41:07.257Z,9.68
2022-11-29T13:43:19.600Z,12.10
2022-11-29T13:45:25.451Z,11.80
2022-11-29T13:47:27.830Z,10.48
2022-11-29T13:49:53.228Z,10.05
2022-11-29T13:52:05.484Z,11.10
2022-11-29T13:54:27.949Z,11.35
2022-11-29T13:56:38.447Z,11.93
2022-11-29T13:58:43.488Z,10.70
2022-11-29T14:01:10.473Z,12.57
2022-11-29T14:03:32.504Z,10.82
2022-11-29T14:08:17.915Z,13.43
2022-11-29T14:10:29.081Z,11.63
2022-11-29T14:12:39.941Z,13.93
2022-11-29T14:14:52.123Z,14.48
2022-11-29T14:16:58.378Z,14.07
2022-11-29T14:19:06.669Z,13.20
2022-11-29T14:21:09.876Z,15.95
2022-11-29T14:23:17.886Z,14.45
2022-11-29T14:25:50.489Z,9.63
2022-11-29T14:28:23.464Z,11.20
2022-11-29T14:30:50.293Z,12.38
2022-11-29T14:32:58.298Z,10.90
2022-11-29T14:35:08.071Z,12.57
2022-11-29T14:37:34.623Z,12.18
2022-11-29T14:39:44.631Z,14.55
2022-11-29T14:41:55.571Z,14.45
2022-11-29T14:44:06.611Z,13.77
2022-11-29T14:46:29.408Z,14.23
2022-11-29T14:48:34.027Z,13.30
2022-11-29T14:52:50.325Z,13.68
2022-11-29T14:54:57.279Z,16.38
2022-11-29T14:57:34.762Z,14.13
2022-11-29T14:59:47.190Z,16.20
2022-11-29T15:01:53.275Z,12.82
2022-11-29T15:03:56.199Z,13.77
2022-11-29T15:06:01.273Z,15.82
2022-11-29T15:08:09.722Z,13.02
2022-11-29T15:10:21.212Z,13.88
2022-11-29T15:12:27.555Z,15.20
2022-11-29T15:14:42.667Z,16.45
2022-11-29T15:17:07.980Z,19.70
2022-11-29T15:21:33.947Z,15.57
2022-11-29T15:23:42.883Z,12.48
2022-11-29T15:25:49.291Z,12.52
2022-11-29T15:27:53.302Z,12.25
2022-11-29T15:29:55.739Z,12.70
2022-11-29T15:32:01.196Z,11.57
2022-11-29T15:34:17.454Z,10.85
2022-11-29T15:36:22.559Z,10.52
2022-11-29T15:38:24.907Z,10.50
2022-11-29T15:40:35.317Z,16.40
2022-11-29T15:42:42.911Z,16.08
2022-11-29T15:44:46.102Z,10.35
2022-11-29T15:46:48.612Z,14.23
2022-11-29T15:48:53.462Z,14.15
2022-11-29T15:51:14.096Z,14.32
2022-11-29T15:53:21.445Z,16.60
2022-11-29T15:55:24.435Z,13.43
2022-11-29T15:57:29.547Z,17.13
2022-11-29T15:59:36.650Z,11.85
2022-11-29T16:01:40.368Z,12.65
2022-11-29T16:03:45.576Z,12.25
2022-11-29T16:05:52.543Z,8.90
2022-11-29T16:08:00.616Z,9.82
2022-11-29T16:10:10.588Z,12.02
2022-11-29T16:12:15.941Z,14.70
2022-11-29T16:14:22.405Z,12.30
2022-11-29T16:16:27.213Z,9.68
2022-11-29T16:18:29.777Z,8.88
2022-11-29T16:20:32.515Z,9.60
2022-11-29T16:22:37.601Z,9.93
2022-11-29T16:24:53.345Z,8.80
2022-11-29T16:26:55.961Z,8.38
2022-11-29T16:28:58.367Z,10.02
2022-11-29T16:31:00.979Z,8.57
2022-11-29T16:33:03.601Z,10.07
2022-11-29T16:35:13.326Z,8.90
2022-11-29T16:37:18.644Z,9.13
2022-11-29T16:39:24.300Z,9.40
2022-11-29T16:41:36.748Z,9.57
2022-11-29T16:43:53.933Z,11.90
2022-11-29T16:46:36.420Z,11.38
2022-11-29T16:48:38.925Z,11.10
2022-11-29T16:50:41.268Z,10.50
2022-11-29T16:52:43.964Z,10.77
2022-11-29T16:54:46.797Z,10.45
2022-11-29T16:56:53.776Z,12.95
2022-11-29T16:59:20.710Z,11.02
2022-11-29T17:01:25.997Z,10.95
2022-11-29T17:03:28.460Z,15.15
2022-11-29T17:05:31.025Z,12.27
2022-11-29T17:07:37.853Z,12.77
2022-11-29T17:09:40.297Z,12.13
2022-11-29T17:11:42.683Z,12.00
2022-11-29T17:13:48.679Z,13.95
2022-11-29T17:15:53.204Z,13.07
2022-11-29T17:17:55.566Z,13.20
2022-11-29T17:19:57.850Z,12.23
2022-11-29T17:22:00.285Z,13.95
2022-11-29T17:24:02.525Z,13.70
2022-11-29T17:26:05.280Z,13.32
2022-11-29T17:28:07.755Z,14.40
2022-11-29T17:30:13.973Z,13.98
2022-11-29T17:32:16.447Z,12.60
2022-11-29T17:34:18.812Z,11.88
2022-11-29T17:36:22.025Z,11.65
2022-11-29T17:38:24.328Z,14.30
2022-11-29T17:40:26.694Z,14.52
2022-11-29T17:42:29.086Z,14.23
2022-11-29T17:44:33.949Z,14.07
2022-11-29T17:46:39.176Z,14.93
2022-11-29T17:48:42.925Z,14.77
2022-11-29T17:50:45.251Z,14.88
2022-11-29T17:52:47.578Z,14.07
2022-11-29T17:54:49.845Z,12.32
2022-11-29T17:56:52.268Z,14.63
2022-11-29T17:58:56.301Z,15.27
2022-11-29T18:01:06.353Z,13.90
2022-11-29T18:03:11.365Z,17.42
2022-11-29T18:05:13.854Z,16.50
2022-11-29T18:07:17.421Z,17.75
2022-11-29T18:09:20.097Z,19.15
2022-11-29T18:11:24.854Z,17.60
2022-11-29T18:13:28.079Z,20.73
2022-11-29T18:15:32.861Z,27.77
2022-11-29T18:17:37.759Z,17.08
2022-11-29T18:19:43.464Z,16.10
2022-11-29T18:21:46.124Z,15.48
2022-11-29T18:23:48.434Z,16.88
2022-11-29T18:25:58.834Z,18.65
2022-11-29T18:28:01.195Z,16.83
2022-11-29T18:30:04.237Z,19.52
2022-11-29T18:32:06.591Z,19.05
2022-11-29T18:34:10.493Z,17.13
2022-11-29T18:36:17.372Z,22.25
2022-11-29T18:38:20.469Z,20.13
2022-11-29T18:40:23.649Z,17.52
2022-11-29T18:42:26.250Z,18.60
2022-11-29T18:44:31.685Z,22.55
2022-11-29T18:46:36.679Z,19.45
2022-11-29T18:48:40.072Z,19.50
2022-11-29T18:50:42.571Z,17.57
2022-11-29T18:52:47.682Z,18.48
2022-11-29T18:54:50.471Z,19.88
2022-11-29T18:56:52.844Z,21.50
2022-11-29T18:58:58.502Z,16.73
2022-11-29T19:01:06.357Z,16.25
2022-11-29T19:03:08.831Z,23.67
2022-11-29T19:05:11.317Z,25.30
2022-11-29T19:07:13.830Z,17.92
2022-11-29T19:09:21.365Z,20.98
2022-11-29T19:11:25.159Z,21.42
2022-11-29T19:13:27.514Z,17.48
2022-11-29T19:15:29.972Z,20.75
2022-11-29T19:17:32.392Z,19.30
2022-11-29T19:19:34.643Z,19.60
2022-11-29T19:21:37.907Z,20.40
2022-11-29T19:23:41.284Z,20.30
2022-11-29T19:25:46.307Z,20.53
2022-11-29T19:27:48.722Z,21.13
2022-11-29T19:29:51.293Z,22.30
2022-11-29T19:31:53.932Z,22.02
2022-11-29T19:33:57.346Z,19.58
2022-11-29T19:36:04.645Z,18.60
2022-11-29T19:38:06.944Z,21.27
2022-11-29T19:40:10.612Z,19.95
2022-11-29T19:42:15.542Z,23.67
2022-11-29T19:44:17.843Z,18.60
2022-11-29T19:46:22.232Z,21.85
2022-11-29T19:48:24.898Z,22.35
2022-11-29T19:50:27.184Z,26.38
2022-11-29T19:52:29.576Z,19.92
2022-11-29T19:54:31.966Z,20.60
2022-11-29T19:56:34.944Z,21.92
2022-11-29T19:58:39.912Z,20.85
2022-11-29T20:00:42.428Z,26.63
2022-11-29T20:02:44.790Z,21.15
2022-11-29T20:04:49.141Z,24.55
2022-11-29T20:08:53.956Z,23.67
2022-11-29T20:10:56.357Z,23.25
2022-11-29T20:12:58.690Z,27.10
2022-11-29T20:15:05.081Z,28.48
2022-11-29T20:17:07.558Z,21.42
2022-11-29T20:19:11.681Z,28.35
2022-11-29T20:21:15.536Z,24.20
2022-11-29T20:23:17.850Z,23.55
2022-11-29T20:25:20.253Z,22.92
2022-11-29T20:27:23.555Z,25.00
2022-11-29T20:29:30.465Z,25.67
2022-11-29T20:31:37.640Z,26.58
2022-11-29T20:33:45.548Z,22.30
2022-11-29T20:35:49.039Z,24.85
2022-11-29T20:38:11.457Z,22.83
2022-11-29T20:40:19.190Z,24.65
2022-11-29T20:42:54.404Z,27.60
2022-11-29T20:44:58.864Z,23.08
2022-11-29T20:47:12.282Z,24.33
2022-11-29T20:49:15.282Z,26.42
2022-11-29T20:51:19.351Z,25.97
2022-11-29T20:53:32.089Z,26.02
2022-11-29T20:55:42.547Z,26.00
2022-11-29T20:57:49.915Z,26.63
2022-11-29T20:59:52.318Z,26.60
2022-11-29T21:01:56.193Z,28.02
2022-11-29T21:04:01.200Z,24.60
2022-11-29T21:06:05.986Z,28.40
2022-11-29T21:08:08.887Z,28.65
2022-11-29T21:10:12.320Z,26.58
2022-11-29T21:12:17.868Z,28.20
2022-11-29T21:14:20.767Z,27.02
2022-11-29T21:16:27.961Z,22.73
2022-11-29T21:18:31.912Z,22.55
2022-11-29T21:20:37.071Z,34.33
2022-11-29T21:22:49.880Z,28.45
2022-11-29T21:25:03.214Z,28.80
2022-11-29T21:27:07.595Z,25.98
2022-11-29T21:29:16.544Z,25.42
2022-11-29T21:31:19.331Z,25.13
2022-11-29T21:33:22.317Z,28.08
2022-11-29T21:35:24.663Z,30.33
2022-11-29T21:37:30.929Z,21.38
2022-11-29T21:39:36.341Z,26.92
2022-11-29T21:41:39.483Z,26.77
2022-11-29T21:44:05.531Z,25.13
2022-11-29T21:46:04.212Z,25.25
2022-11-29T21:48:26.792Z,26.27
2022-11-29T21:50:29.166Z,27.63
2022-11-29T21:52:36.993Z,29.92
2022-11-29T21:54:39.936Z,27.85
2022-11-29T21:56:42.298Z,28.50
2022-11-29T21:58:44.740Z,26.88
2022-11-29T22:00:47.026Z,29.33
2022-11-29T22:02:49.384Z,29.33
2022-11-29T22:04:54.608Z,24.77
2022-11-29T22:06:56.924Z,31.70
2022-11-29T22:09:01.957Z,21.45
2022-11-29T22:11:06.139Z,25.27
2022-11-29T22:13:08.478Z,24.85
2022-11-29T22:15:14.003Z,26.67
2022-11-29T22:17:16.383Z,28.45
2022-11-29T22:19:20.652Z,26.58
2022-11-29T22:23:25.009Z,26.83
2022-11-29T22:25:30.016Z,26.27
2022-11-29T22:27:32.337Z,24.98
2022-11-29T22:29:34.616Z,27.90
2022-11-29T22:31:37.569Z,27.70
2022-11-29T22:33:40.517Z,28.83
2022-11-29T22:35:43.687Z,30.58
2022-11-29T22:37:46.089Z,26.05
2022-11-29T22:39:49.392Z,25.60
2022-11-29T22:41:55.471Z,26.75
2022-11-29T22:43:57.945Z,31.08
2022-11-29T22:46:07.221Z,28.13
2022-11-29T22:48:09.661Z,25.92
2022-11-29T22:50:12.328Z,26.40
2022-11-29T22:52:14.568Z,23.80
2022-11-29T22:54:17.556Z,26.70
2022-11-29T22:56:20.488Z,26.80
2022-11-29T22:58:25.487Z,30.00
2022-11-29T23:00:27.781Z,30.75
2022-11-29T23:02:30.372Z,27.67
2022-11-29T23:04:32.770Z,28.52
2022-11-29T23:06:36.933Z,26.25
2022-11-29T23:08:40.398Z,26.27
2022-11-29T23:10:42.778Z,30.00
2022-11-29T23:12:45.107Z,26.38
2022-11-29T23:14:55.776Z,26.33
2022-11-29T23:16:58.827Z,27.13
2022-11-29T23:19:01.659Z,26.83
2022-11-29T23:21:05.698Z,31.80
2022-11-29T23:23:08.061Z,23.55
2022-11-29T23:25:10.373Z,30.17
2022-11-29T23:27:12.754Z,29.63
2022-11-29T23:29:17.396Z,30.83
2022-11-29T23:31:23.112Z,31.13
2022-11-29T23:33:26.254Z,22.83
2022-11-29T23:35:28.588Z,33.10
2022-11-29T23:37:30.910Z,29.40
2022-11-29T23:39:33.257Z,25.45
2022-11-29T23:41:36.859Z,26.35
2022-11-29T23:45:43.468Z,30.77
2022-11-29T23:47:48.356Z,28.67
2022-11-29T23:49:50.722Z,32.17
2022-11-29T23:51:53.103Z,36.83
2022-11-29T23:53:55.741Z,28.02
2022-11-29T23:55:59.077Z,24.63
2022-11-29T23:58:01.603Z,31.42
